sensor_id;sensor_type;location;lat;lon;timestamp;P1;durP1;ratioP1;P2;durP2;ratioP2
53267;SDS011;39156;51.176;6.738;2023-11-21T00:01:04;46.33;;;43.20;;
53267;SDS011;39156;51.176;6.738;2023-11-21T00:03:30;48.25;;;45.35;;
53267;SDS011;39156;51.176;6.738;2023-11-21T00:05:56;47.25;;;44.00;;
53267;SDS011;39156;51.176;6.738;2023-11-21T00:08:22;49.53;;;46.45;;
53267;SDS011;39156;51.176;6.738;2023-11-21T00:10:48;47.08;;;44.38;;
53267;SDS011;39156;51.176;6.738;2023-11-21T00:13:13;46.70;;;43.95;;
53267;SDS011;39156;51.176;6.738;2023-11-21T00:15:39;47.40;;;44.17;;
53267;SDS011;39156;51.176;6.738;2023-11-21T00:18:05;47.42;;;44.53;;
53267;SDS011;39156;51.176;6.738;2023-11-21T00:20:31;45.90;;;42.93;;
53267;SDS011;39156;51.176;6.738;2023-11-21T00:22:57;46.75;;;43.95;;
53267;SDS011;39156;51.176;6.738;2023-11-21T00:27:50;47.47;;;44.55;;
53267;SDS011;39156;51.176;6.738;2023-11-21T00:30:15;49.25;;;46.17;;
53267;SDS011;39156;51.176;6.738;2023-11-21T00:32:42;46.47;;;43.60;;
53267;SDS011;39156;51.176;6.738;2023-11-21T00:35:08;47.13;;;43.97;;
53267;SDS011;39156;51.176;6.738;2023-11-21T00:37:34;44.97;;;42.08;;
53267;SDS011;39156;51.176;6.738;2023-11-21T00:40:00;46.33;;;43.38;;
53267;SDS011;39156;51.176;6.738;2023-11-21T00:42:29;45.75;;;43.03;;
53267;SDS011;39156;51.176;6.738;2023-11-21T00:44:56;47.78;;;44.80;;
53267;SDS011;39156;51.176;6.738;2023-11-21T00:47:22;47.50;;;44.33;;
53267;SDS011;39156;51.176;6.738;2023-11-21T00:49:48;49.00;;;46.03;;
53267;SDS011;39156;51.176;6.738;2023-11-21T00:52:14;48.70;;;45.75;;
53267;SDS011;39156;51.176;6.738;2023-11-21T00:54:40;48.85;;;45.88;;
53267;SDS011;39156;51.176;6.738;2023-11-21T00:57:06;47.45;;;44.55;;
53267;SDS011;39156;51.176;6.738;2023-11-21T00:59:33;49.25;;;45.95;;
53267;SDS011;39156;51.176;6.738;2023-11-21T01:01:59;48.73;;;45.50;;
53267;SDS011;39156;51.176;6.738;2023-11-21T01:04:26;51.03;;;47.75;;
53267;SDS011;39156;51.176;6.738;2023-11-21T01:06:52;47.53;;;44.47;;
53267;SDS011;39156;51.176;6.738;2023-11-21T01:09:18;49.35;;;46.25;;
53267;SDS011;39156;51.176;6.738;2023-11-21T01:11:44;47.70;;;44.78;;
53267;SDS011;39156;51.176;6.738;2023-11-21T01:14:09;49.55;;;46.38;;
53267;SDS011;39156;51.176;6.738;2023-11-21T01:16:35;50.63;;;47.42;;
53267;SDS011;39156;51.176;6.738;2023-11-21T01:19:01;48.78;;;45.60;;
53267;SDS011;39156;51.176;6.738;2023-11-21T01:21:27;52.67;;;48.92;;
53267;SDS011;39156;51.176;6.738;2023-11-21T01:23:53;48.20;;;45.03;;
53267;SDS011;39156;51.176;6.738;2023-11-21T01:28:45;50.08;;;46.95;;
53267;SDS011;39156;51.176;6.738;2023-11-21T01:31:13;49.08;;;46.17;;
53267;SDS011;39156;51.176;6.738;2023-11-21T01:33:42;48.97;;;45.90;;
53267;SDS011;39156;51.176;6.738;2023-11-21T01:36:08;49.28;;;45.97;;
53267;SDS011;39156;51.176;6.738;2023-11-21T01:38:35;50.58;;;46.75;;
53267;SDS011;39156;51.176;6.738;2023-11-21T01:41:01;50.10;;;46.95;;
53267;SDS011;39156;51.176;6.738;2023-11-21T01:43:27;50.90;;;47.60;;
53267;SDS011;39156;51.176;6.738;2023-11-21T01:45:54;50.78;;;47.67;;
53267;SDS011;39156;51.176;6.738;2023-11-21T01:48:22;49.88;;;46.92;;
53267;SDS011;39156;51.176;6.738;2023-11-21T01:50:48;48.25;;;45.33;;
53267;SDS011;39156;51.176;6.738;2023-11-21T01:53:14;48.63;;;45.72;;
53267;SDS011;39156;51.176;6.738;2023-11-21T01:55:41;49.97;;;46.97;;
53267;SDS011;39156;51.176;6.738;2023-11-21T01:58:08;49.17;;;46.17;;
53267;SDS011;39156;51.176;6.738;2023-11-21T02:00:35;47.93;;;44.90;;
53267;SDS011;39156;51.176;6.738;2023-11-21T02:03:00;50.30;;;47.22;;
53267;SDS011;39156;51.176;6.738;2023-11-21T02:05:27;47.33;;;44.53;;
53267;SDS011;39156;51.176;6.738;2023-11-21T02:07:54;49.65;;;46.35;;
53267;SDS011;39156;51.176;6.738;2023-11-21T02:10:21;49.95;;;46.83;;
53267;SDS011;39156;51.176;6.738;2023-11-21T02:12:50;49.53;;;46.55;;
53267;SDS011;39156;51.176;6.738;2023-11-21T02:15:16;49.47;;;46.30;;
53267;SDS011;39156;51.176;6.738;2023-11-21T02:17:46;51.90;;;48.55;;
53267;SDS011;39156;51.176;6.738;2023-11-21T02:20:16;50.53;;;47.55;;
53267;SDS011;39156;51.176;6.738;2023-11-21T02:25:30;49.58;;;46.67;;
53267;SDS011;39156;51.176;6.738;2023-11-21T02:27:59;48.70;;;45.70;;
53267;SDS011;39156;51.176;6.738;2023-11-21T02:30:27;51.13;;;47.83;;
53267;SDS011;39156;51.176;6.738;2023-11-21T02:32:53;50.05;;;46.78;;
53267;SDS011;39156;51.176;6.738;2023-11-21T02:35:20;49.72;;;46.42;;
53267;SDS011;39156;51.176;6.738;2023-11-21T02:37:46;49.33;;;46.33;;
53267;SDS011;39156;51.176;6.738;2023-11-21T02:40:13;51.70;;;48.60;;
53267;SDS011;39156;51.176;6.738;2023-11-21T02:42:42;50.13;;;47.22;;
53267;SDS011;39156;51.176;6.738;2023-11-21T02:45:09;47.00;;;44.22;;
53267;SDS011;39156;51.176;6.738;2023-11-21T02:47:37;49.75;;;46.55;;
53267;SDS011;39156;51.176;6.738;2023-11-21T02:50:04;49.35;;;45.65;;
53267;SDS011;39156;51.176;6.738;2023-11-21T02:52:32;49.03;;;45.95;;
53267;SDS011;39156;51.176;6.738;2023-11-21T02:54:58;50.65;;;47.33;;
53267;SDS011;39156;51.176;6.738;2023-11-21T02:57:24;50.92;;;47.63;;
53267;SDS011;39156;51.176;6.738;2023-11-21T02:59:50;52.00;;;48.70;;
53267;SDS011;39156;51.176;6.738;2023-11-21T03:02:15;51.95;;;48.58;;
53267;SDS011;39156;51.176;6.738;2023-11-21T03:04:42;51.65;;;48.15;;
53267;SDS011;39156;51.176;6.738;2023-11-21T03:07:08;50.38;;;46.78;;
53267;SDS011;39156;51.176;6.738;2023-11-21T03:09:34;50.30;;;47.20;;
53267;SDS011;39156;51.176;6.738;2023-11-21T03:12:00;52.25;;;48.90;;
53267;SDS011;39156;51.176;6.738;2023-11-21T03:14:26;51.80;;;48.53;;
53267;SDS011;39156;51.176;6.738;2023-11-21T03:16:52;53.15;;;49.72;;
53267;SDS011;39156;51.176;6.738;2023-11-21T03:19:18;52.08;;;48.63;;
53267;SDS011;39156;51.176;6.738;2023-11-21T03:21:43;50.90;;;47.67;;
53267;SDS011;39156;51.176;6.738;2023-11-21T03:24:09;50.22;;;47.03;;
53267;SDS011;39156;51.176;6.738;2023-11-21T03:26:35;51.25;;;47.28;;
53267;SDS011;39156;51.176;6.738;2023-11-21T03:29:02;53.50;;;50.22;;
53267;SDS011;39156;51.176;6.738;2023-11-21T03:31:29;50.95;;;47.72;;
53267;SDS011;39156;51.176;6.738;2023-11-21T03:33:55;51.30;;;47.97;;
53267;SDS011;39156;51.176;6.738;2023-11-21T03:36:21;52.58;;;49.10;;
53267;SDS011;39156;51.176;6.738;2023-11-21T03:38:47;52.80;;;49.30;;
53267;SDS011;39156;51.176;6.738;2023-11-21T03:41:13;51.47;;;48.10;;
53267;SDS011;39156;51.176;6.738;2023-11-21T03:43:39;52.60;;;49.08;;
53267;SDS011;39156;51.176;6.738;2023-11-21T03:46:05;55.13;;;51.42;;
53267;SDS011;39156;51.176;6.738;2023-11-21T03:48:32;50.88;;;47.47;;
53267;SDS011;39156;51.176;6.738;2023-11-21T03:50:58;52.90;;;49.30;;
53267;SDS011;39156;51.176;6.738;2023-11-21T03:53:23;54.22;;;50.53;;
53267;SDS011;39156;51.176;6.738;2023-11-21T03:55:49;52.67;;;49.38;;
53267;SDS011;39156;51.176;6.738;2023-11-21T03:58:15;53.97;;;50.38;;
53267;SDS011;39156;51.176;6.738;2023-11-21T04:00:40;51.83;;;48.15;;
53267;SDS011;39156;51.176;6.738;2023-11-21T04:03:06;51.45;;;47.85;;
53267;SDS011;39156;51.176;6.738;2023-11-21T04:05:32;53.72;;;50.15;;
53267;SDS011;39156;51.176;6.738;2023-11-21T04:07:57;54.33;;;50.92;;
53267;SDS011;39156;51.176;6.738;2023-11-21T04:10:23;51.67;;;48.28;;
53267;SDS011;39156;51.176;6.738;2023-11-21T04:12:49;52.08;;;48.58;;
53267;SDS011;39156;51.176;6.738;2023-11-21T04:15:14;53.65;;;49.88;;
53267;SDS011;39156;51.176;6.738;2023-11-21T04:17:40;54.28;;;50.40;;
53267;SDS011;39156;51.176;6.738;2023-11-21T04:20:07;54.65;;;50.90;;
53267;SDS011;39156;51.176;6.738;2023-11-21T04:22:40;57.58;;;53.67;;
53267;SDS011;39156;51.176;6.738;2023-11-21T04:25:09;54.17;;;50.80;;
53267;SDS011;39156;51.176;6.738;2023-11-21T04:27:36;54.63;;;51.03;;
53267;SDS011;39156;51.176;6.738;2023-11-21T04:30:04;54.47;;;50.72;;
53267;SDS011;39156;51.176;6.738;2023-11-21T04:32:30;54.33;;;50.63;;
53267;SDS011;39156;51.176;6.738;2023-11-21T04:34:56;53.70;;;50.17;;
53267;SDS011;39156;51.176;6.738;2023-11-21T04:37:22;54.17;;;50.67;;
53267;SDS011;39156;51.176;6.738;2023-11-21T04:39:49;52.88;;;49.53;;
53267;SDS011;39156;51.176;6.738;2023-11-21T04:42:15;54.33;;;50.65;;
53267;SDS011;39156;51.176;6.738;2023-11-21T04:44:40;55.38;;;51.58;;
53267;SDS011;39156;51.176;6.738;2023-11-21T04:47:06;55.65;;;52.03;;
53267;SDS011;39156;51.176;6.738;2023-11-21T04:49:32;58.08;;;54.05;;
53267;SDS011;39156;51.176;6.738;2023-11-21T04:51:59;55.70;;;52.05;;
53267;SDS011;39156;51.176;6.738;2023-11-21T04:54:24;54.00;;;50.30;;
53267;SDS011;39156;51.176;6.738;2023-11-21T04:56:50;51.83;;;48.42;;
53267;SDS011;39156;51.176;6.738;2023-11-21T04:59:16;55.78;;;52.08;;
53267;SDS011;39156;51.176;6.738;2023-11-21T05:01:41;55.53;;;51.65;;
53267;SDS011;39156;51.176;6.738;2023-11-21T05:04:07;55.45;;;51.60;;
53267;SDS011;39156;51.176;6.738;2023-11-21T05:06:33;54.35;;;50.65;;
53267;SDS011;39156;51.176;6.738;2023-11-21T05:08:59;54.70;;;51.10;;
53267;SDS011;39156;51.176;6.738;2023-11-21T05:11:25;54.90;;;51.35;;
53267;SDS011;39156;51.176;6.738;2023-11-21T05:13:52;53.80;;;50.13;;
53267;SDS011;39156;51.176;6.738;2023-11-21T05:16:18;53.95;;;50.40;;
53267;SDS011;39156;51.176;6.738;2023-11-21T05:18:45;52.88;;;49.47;;
53267;SDS011;39156;51.176;6.738;2023-11-21T05:21:10;52.15;;;48.75;;
53267;SDS011;39156;51.176;6.738;2023-11-21T05:23:36;53.33;;;49.65;;
53267;SDS011;39156;51.176;6.738;2023-11-21T05:26:02;54.42;;;50.92;;
53267;SDS011;39156;51.176;6.738;2023-11-21T05:28:28;52.58;;;49.08;;
53267;SDS011;39156;51.176;6.738;2023-11-21T05:30:55;53.50;;;49.90;;
53267;SDS011;39156;51.176;6.738;2023-11-21T05:33:21;53.35;;;49.75;;
53267;SDS011;39156;51.176;6.738;2023-11-21T05:35:46;53.75;;;50.10;;
53267;SDS011;39156;51.176;6.738;2023-11-21T05:38:14;54.40;;;50.60;;
53267;SDS011;39156;51.176;6.738;2023-11-21T05:40:39;54.13;;;50.45;;
53267;SDS011;39156;51.176;6.738;2023-11-21T05:43:06;53.47;;;49.88;;
53267;SDS011;39156;51.176;6.738;2023-11-21T05:45:32;53.95;;;50.33;;
53267;SDS011;39156;51.176;6.738;2023-11-21T05:47:58;54.83;;;51.00;;
53267;SDS011;39156;51.176;6.738;2023-11-21T05:50:24;53.58;;;49.83;;
53267;SDS011;39156;51.176;6.738;2023-11-21T05:52:49;52.50;;;49.13;;
53267;SDS011;39156;51.176;6.738;2023-11-21T05:55:15;56.00;;;52.30;;
53267;SDS011;39156;51.176;6.738;2023-11-21T05:57:42;55.28;;;51.50;;
53267;SDS011;39156;51.176;6.738;2023-11-21T06:00:09;55.65;;;52.00;;
53267;SDS011;39156;51.176;6.738;2023-11-21T06:02:43;55.63;;;51.85;;
53267;SDS011;39156;51.176;6.738;2023-11-21T06:05:10;53.40;;;49.75;;
53267;SDS011;39156;51.176;6.738;2023-11-21T06:07:36;55.72;;;51.85;;
53267;SDS011;39156;51.176;6.738;2023-11-21T06:10:03;54.97;;;51.03;;
53267;SDS011;39156;51.176;6.738;2023-11-21T06:12:36;57.58;;;53.58;;
53267;SDS011;39156;51.176;6.738;2023-11-21T06:15:03;56.42;;;52.53;;
53267;SDS011;39156;51.176;6.738;2023-11-21T06:17:31;56.15;;;52.15;;
53267;SDS011;39156;51.176;6.738;2023-11-21T06:19:57;55.08;;;50.97;;
53267;SDS011;39156;51.176;6.738;2023-11-21T06:22:22;57.63;;;53.22;;
53267;SDS011;39156;51.176;6.738;2023-11-21T06:24:48;58.22;;;53.78;;
53267;SDS011;39156;51.176;6.738;2023-11-21T06:27:14;58.50;;;54.30;;
53267;SDS011;39156;51.176;6.738;2023-11-21T06:29:40;58.85;;;54.67;;
53267;SDS011;39156;51.176;6.738;2023-11-21T06:32:07;58.75;;;54.67;;
53267;SDS011;39156;51.176;6.738;2023-11-21T06:34:33;58.80;;;54.40;;
53267;SDS011;39156;51.176;6.738;2023-11-21T06:36:59;58.55;;;54.33;;
53267;SDS011;39156;51.176;6.738;2023-11-21T06:39:24;57.83;;;53.75;;
53267;SDS011;39156;51.176;6.738;2023-11-21T06:41:50;57.92;;;53.13;;
53267;SDS011;39156;51.176;6.738;2023-11-21T06:44:16;58.15;;;53.60;;
53267;SDS011;39156;51.176;6.738;2023-11-21T06:46:41;58.50;;;54.00;;
53267;SDS011;39156;51.176;6.738;2023-11-21T06:49:07;58.95;;;54.65;;
53267;SDS011;39156;51.176;6.738;2023-11-21T06:51:33;63.17;;;58.27;;
53267;SDS011;39156;51.176;6.738;2023-11-21T06:53:59;58.92;;;54.40;;
53267;SDS011;39156;51.176;6.738;2023-11-21T06:56:25;59.28;;;54.92;;
53267;SDS011;39156;51.176;6.738;2023-11-21T06:58:50;61.08;;;55.50;;
53267;SDS011;39156;51.176;6.738;2023-11-21T07:01:19;60.72;;;56.15;;
53267;SDS011;39156;51.176;6.738;2023-11-21T07:03:44;62.15;;;57.17;;
53267;SDS011;39156;51.176;6.738;2023-11-21T07:06:10;61.30;;;56.50;;
53267;SDS011;39156;51.176;6.738;2023-11-21T07:08:36;59.42;;;54.63;;
53267;SDS011;39156;51.176;6.738;2023-11-21T07:11:03;63.47;;;58.47;;
53267;SDS011;39156;51.176;6.738;2023-11-21T07:13:29;59.95;;;55.40;;
53267;SDS011;39156;51.176;6.738;2023-11-21T07:15:55;59.42;;;54.72;;
53267;SDS011;39156;51.176;6.738;2023-11-21T07:18:23;60.92;;;56.30;;
53267;SDS011;39156;51.176;6.738;2023-11-21T07:20:49;61.75;;;56.97;;
53267;SDS011;39156;51.176;6.738;2023-11-21T07:23:15;61.33;;;56.63;;
53267;SDS011;39156;51.176;6.738;2023-11-21T07:25:40;60.70;;;55.95;;
53267;SDS011;39156;51.176;6.738;2023-11-21T07:28:08;60.90;;;56.22;;
53267;SDS011;39156;51.176;6.738;2023-11-21T07:30:34;60.63;;;56.05;;
53267;SDS011;39156;51.176;6.738;2023-11-21T07:32:59;59.78;;;55.20;;
53267;SDS011;39156;51.176;6.738;2023-11-21T07:35:25;60.28;;;55.58;;
53267;SDS011;39156;51.176;6.738;2023-11-21T07:37:51;63.50;;;58.60;;
53267;SDS011;39156;51.176;6.738;2023-11-21T07:40:17;60.80;;;56.30;;
53267;SDS011;39156;51.176;6.738;2023-11-21T07:42:43;58.47;;;53.88;;
53267;SDS011;39156;51.176;6.738;2023-11-21T07:45:08;60.80;;;55.90;;
53267;SDS011;39156;51.176;6.738;2023-11-21T07:47:34;62.00;;;56.95;;
53267;SDS011;39156;51.176;6.738;2023-11-21T07:50:02;61.15;;;56.15;;
53267;SDS011;39156;51.176;6.738;2023-11-21T07:52:28;62.97;;;57.20;;
53267;SDS011;39156;51.176;6.738;2023-11-21T07:54:54;63.47;;;58.50;;
53267;SDS011;39156;51.176;6.738;2023-11-21T07:57:19;63.40;;;58.20;;
53267;SDS011;39156;51.176;6.738;2023-11-21T07:59:45;63.13;;;58.00;;
53267;SDS011;39156;51.176;6.738;2023-11-21T08:02:11;62.35;;;57.28;;
53267;SDS011;39156;51.176;6.738;2023-11-21T08:04:37;64.57;;;58.97;;
53267;SDS011;39156;51.176;6.738;2023-11-21T08:07:03;61.20;;;56.28;;
53267;SDS011;39156;51.176;6.738;2023-11-21T08:09:28;60.67;;;55.92;;
53267;SDS011;39156;51.176;6.738;2023-11-21T08:11:54;64.40;;;59.28;;
53267;SDS011;39156;51.176;6.738;2023-11-21T08:14:21;62.55;;;57.45;;
53267;SDS011;39156;51.176;6.738;2023-11-21T08:16:50;63.10;;;57.83;;
53267;SDS011;39156;51.176;6.738;2023-11-21T08:19:15;62.90;;;57.47;;
53267;SDS011;39156;51.176;6.738;2023-11-21T08:24:09;61.92;;;57.08;;
53267;SDS011;39156;51.176;6.738;2023-11-21T08:26:36;61.72;;;56.42;;
53267;SDS011;39156;51.176;6.738;2023-11-21T08:29:02;65.28;;;59.88;;
53267;SDS011;39156;51.176;6.738;2023-11-21T08:31:28;62.53;;;57.22;;
53267;SDS011;39156;51.176;6.738;2023-11-21T08:33:54;64.50;;;59.25;;
53267;SDS011;39156;51.176;6.738;2023-11-21T08:36:21;63.60;;;58.27;;
53267;SDS011;39156;51.176;6.738;2023-11-21T08:38:49;63.72;;;57.78;;
53267;SDS011;39156;51.176;6.738;2023-11-21T08:41:17;64.15;;;58.63;;
53267;SDS011;39156;51.176;6.738;2023-11-21T08:43:43;64.00;;;58.33;;
53267;SDS011;39156;51.176;6.738;2023-11-21T08:46:09;64.45;;;58.88;;
53267;SDS011;39156;51.176;6.738;2023-11-21T08:48:36;65.07;;;59.47;;
53267;SDS011;39156;51.176;6.738;2023-11-21T08:51:02;64.63;;;59.35;;
53267;SDS011;39156;51.176;6.738;2023-11-21T08:53:29;63.80;;;58.13;;
53267;SDS011;39156;51.176;6.738;2023-11-21T08:55:56;64.22;;;58.80;;
53267;SDS011;39156;51.176;6.738;2023-11-21T08:58:22;61.65;;;56.65;;
53267;SDS011;39156;51.176;6.738;2023-11-21T09:00:47;61.47;;;56.45;;
53267;SDS011;39156;51.176;6.738;2023-11-21T09:03:13;61.17;;;56.03;;
53267;SDS011;39156;51.176;6.738;2023-11-21T09:05:39;62.15;;;57.08;;
53267;SDS011;39156;51.176;6.738;2023-11-21T09:08:05;61.78;;;56.60;;
53267;SDS011;39156;51.176;6.738;2023-11-21T09:10:32;63.80;;;58.13;;
53267;SDS011;39156;51.176;6.738;2023-11-21T09:13:01;62.25;;;57.05;;
53267;SDS011;39156;51.176;6.738;2023-11-21T09:15:27;62.47;;;57.40;;
53267;SDS011;39156;51.176;6.738;2023-11-21T09:17:53;61.13;;;55.75;;
53267;SDS011;39156;51.176;6.738;2023-11-21T09:20:19;62.10;;;57.17;;
53267;SDS011;39156;51.176;6.738;2023-11-21T09:22:47;62.78;;;57.50;;
53267;SDS011;39156;51.176;6.738;2023-11-21T09:25:14;62.92;;;58.05;;
53267;SDS011;39156;51.176;6.738;2023-11-21T09:27:40;62.00;;;57.05;;
53267;SDS011;39156;51.176;6.738;2023-11-21T09:30:06;60.10;;;55.30;;
53267;SDS011;39156;51.176;6.738;2023-11-21T09:32:36;60.95;;;55.92;;
53267;SDS011;39156;51.176;6.738;2023-11-21T09:35:04;61.70;;;56.28;;
53267;SDS011;39156;51.176;6.738;2023-11-21T09:37:33;63.92;;;58.88;;
53267;SDS011;39156;51.176;6.738;2023-11-21T09:39:58;60.63;;;55.65;;
53267;SDS011;39156;51.176;6.738;2023-11-21T09:42:58;58.90;;;54.20;;
53267;SDS011;39156;51.176;6.738;2023-11-21T09:45:24;62.53;;;57.42;;
53267;SDS011;39156;51.176;6.738;2023-11-21T09:47:52;60.00;;;54.85;;
53267;SDS011;39156;51.176;6.738;2023-11-21T09:50:20;61.10;;;55.83;;
53267;SDS011;39156;51.176;6.738;2023-11-21T09:55:18;61.03;;;55.75;;
53267;SDS011;39156;51.176;6.738;2023-11-21T09:57:46;60.58;;;55.28;;
53267;SDS011;39156;51.176;6.738;2023-11-21T10:00:13;58.83;;;53.85;;
53267;SDS011;39156;51.176;6.738;2023-11-21T10:02:42;60.03;;;55.00;;
53267;SDS011;39156;51.176;6.738;2023-11-21T10:05:09;61.97;;;57.03;;
53267;SDS011;39156;51.176;6.738;2023-11-21T10:07:36;60.13;;;55.05;;
53267;SDS011;39156;51.176;6.738;2023-11-21T10:10:04;60.33;;;55.33;;
53267;SDS011;39156;51.176;6.738;2023-11-21T10:12:33;60.40;;;55.40;;
53267;SDS011;39156;51.176;6.738;2023-11-21T10:17:28;58.15;;;53.08;;
53267;SDS011;39156;51.176;6.738;2023-11-21T10:20:04;60.25;;;55.35;;
53267;SDS011;39156;51.176;6.738;2023-11-21T10:22:36;58.42;;;53.70;;
53267;SDS011;39156;51.176;6.738;2023-11-21T10:25:06;58.70;;;53.80;;
53267;SDS011;39156;51.176;6.738;2023-11-21T10:30:03;56.42;;;51.72;;
53267;SDS011;39156;51.176;6.738;2023-11-21T10:32:29;57.15;;;52.55;;
53267;SDS011;39156;51.176;6.738;2023-11-21T10:35:01;57.03;;;52.40;;
53267;SDS011;39156;51.176;6.738;2023-11-21T10:37:31;57.97;;;52.92;;
53267;SDS011;39156;51.176;6.738;2023-11-21T10:40:01;59.38;;;54.42;;
53267;SDS011;39156;51.176;6.738;2023-11-21T10:42:27;59.88;;;54.45;;
53267;SDS011;39156;51.176;6.738;2023-11-21T10:44:53;56.67;;;52.05;;
53267;SDS011;39156;51.176;6.738;2023-11-21T10:47:21;57.20;;;52.42;;
53267;SDS011;39156;51.176;6.738;2023-11-21T10:49:51;60.22;;;54.92;;
53267;SDS011;39156;51.176;6.738;2023-11-21T10:52:18;56.63;;;51.92;;
53267;SDS011;39156;51.176;6.738;2023-11-21T10:54:45;59.30;;;54.63;;
53267;SDS011;39156;51.176;6.738;2023-11-21T10:57:11;58.10;;;53.40;;
53267;SDS011;39156;51.176;6.738;2023-11-21T10:59:44;57.10;;;52.58;;
53267;SDS011;39156;51.176;6.738;2023-11-21T11:02:21;58.53;;;53.83;;
53267;SDS011;39156;51.176;6.738;2023-11-21T11:04:53;57.85;;;53.10;;
53267;SDS011;39156;51.176;6.738;2023-11-21T11:07:26;55.63;;;51.28;;
53267;SDS011;39156;51.176;6.738;2023-11-21T11:09:53;56.92;;;52.40;;
53267;SDS011;39156;51.176;6.738;2023-11-21T11:12:20;56.70;;;52.10;;
53267;SDS011;39156;51.176;6.738;2023-11-21T11:14:46;58.30;;;53.83;;
53267;SDS011;39156;51.176;6.738;2023-11-21T11:17:14;56.63;;;51.80;;
53267;SDS011;39156;51.176;6.738;2023-11-21T11:19:39;56.92;;;52.55;;
53267;SDS011;39156;51.176;6.738;2023-11-21T11:22:19;54.57;;;50.43;;
53267;SDS011;39156;51.176;6.738;2023-11-21T11:28:18;62.38;;;57.17;;
53267;SDS011;39156;51.176;6.738;2023-11-21T11:33:39;62.35;;;57.63;;
53267;SDS011;39156;51.176;6.738;2023-11-21T11:36:36;58.33;;;53.75;;
53267;SDS011;39156;51.176;6.738;2023-11-21T11:41:56;60.88;;;56.05;;
53267;SDS011;39156;51.176;6.738;2023-11-21T11:47:25;59.95;;;55.25;;
53267;SDS011;39156;51.176;6.738;2023-11-21T11:50:03;59.35;;;53.40;;
53267;SDS011;39156;51.176;6.738;2023-11-21T11:55:17;57.75;;;53.17;;
53267;SDS011;39156;51.176;6.738;2023-11-21T11:57:49;61.95;;;56.75;;
53267;SDS011;39156;51.176;6.738;2023-11-21T12:02:52;57.35;;;52.88;;
53267;SDS011;39156;51.176;6.738;2023-11-21T12:05:24;57.47;;;52.95;;
53267;SDS011;39156;51.176;6.738;2023-11-21T12:07:57;54.95;;;50.90;;
53267;SDS011;39156;51.176;6.738;2023-11-21T12:10:28;55.03;;;50.67;;
53267;SDS011;39156;51.176;6.738;2023-11-21T12:15:27;55.45;;;50.95;;
53267;SDS011;39156;51.176;6.738;2023-11-21T12:17:56;54.33;;;50.03;;
53267;SDS011;39156;51.176;6.738;2023-11-21T12:20:24;55.10;;;51.00;;
53267;SDS011;39156;51.176;6.738;2023-11-21T12:22:52;55.80;;;51.20;;
53267;SDS011;39156;51.176;6.738;2023-11-21T12:25:21;53.92;;;49.83;;
53267;SDS011;39156;51.176;6.738;2023-11-21T12:27:50;54.75;;;50.53;;
53267;SDS011;39156;51.176;6.738;2023-11-21T12:30:20;53.83;;;49.63;;
53267;SDS011;39156;51.176;6.738;2023-11-21T12:32:48;55.15;;;50.85;;
53267;SDS011;39156;51.176;6.738;2023-11-21T12:35:16;55.47;;;51.05;;
53267;SDS011;39156;51.176;6.738;2023-11-21T12:37:53;55.33;;;51.08;;
53267;SDS011;39156;51.176;6.738;2023-11-21T12:40:22;55.35;;;50.88;;
53267;SDS011;39156;51.176;6.738;2023-11-21T12:42:48;54.63;;;50.33;;
53267;SDS011;39156;51.176;6.738;2023-11-21T12:45:24;55.55;;;50.90;;
53267;SDS011;39156;51.176;6.738;2023-11-21T12:48:10;54.22;;;50.00;;
53267;SDS011;39156;51.176;6.738;2023-11-21T12:50:37;53.05;;;48.83;;
53267;SDS011;39156;51.176;6.738;2023-11-21T12:53:04;56.40;;;52.03;;
53267;SDS011;39156;51.176;6.738;2023-11-21T12:55:37;54.55;;;50.35;;
53267;SDS011;39156;51.176;6.738;2023-11-21T12:58:03;55.08;;;50.67;;
53267;SDS011;39156;51.176;6.738;2023-11-21T13:00:38;54.17;;;50.28;;
53267;SDS011;39156;51.176;6.738;2023-11-21T13:03:12;54.90;;;50.58;;
53267;SDS011;39156;51.176;6.738;2023-11-21T13:05:44;55.08;;;50.63;;
53267;SDS011;39156;51.176;6.738;2023-11-21T13:08:15;54.50;;;50.13;;
53267;SDS011;39156;51.176;6.738;2023-11-21T13:10:45;55.60;;;51.03;;
53267;SDS011;39156;51.176;6.738;2023-11-21T13:13:14;53.35;;;49.15;;
53267;SDS011;39156;51.176;6.738;2023-11-21T13:15:49;56.40;;;51.83;;
53267;SDS011;39156;51.176;6.738;2023-11-21T13:18:22;55.20;;;51.10;;
53267;SDS011;39156;51.176;6.738;2023-11-21T13:20:53;58.42;;;53.83;;
53267;SDS011;39156;51.176;6.738;2023-11-21T13:23:20;55.63;;;51.30;;
53267;SDS011;39156;51.176;6.738;2023-11-21T13:25:47;55.95;;;51.10;;
53267;SDS011;39156;51.176;6.738;2023-11-21T13:28:14;56.20;;;51.83;;
53267;SDS011;39156;51.176;6.738;2023-11-21T13:30:49;55.33;;;50.53;;
53267;SDS011;39156;51.176;6.738;2023-11-21T13:33:17;55.13;;;50.80;;
53267;SDS011;39156;51.176;6.738;2023-11-21T13:35:46;56.90;;;52.33;;
53267;SDS011;39156;51.176;6.738;2023-11-21T13:38:15;54.30;;;50.20;;
53267;SDS011;39156;51.176;6.738;2023-11-21T13:40:47;54.35;;;50.15;;
53267;SDS011;39156;51.176;6.738;2023-11-21T13:43:18;55.60;;;51.22;;
53267;SDS011;39156;51.176;6.738;2023-11-21T13:45:47;53.00;;;48.85;;
53267;SDS011;39156;51.176;6.738;2023-11-21T13:48:24;55.03;;;50.72;;
53267;SDS011;39156;51.176;6.738;2023-11-21T13:50:56;54.05;;;49.75;;
53267;SDS011;39156;51.176;6.738;2023-11-21T13:53:41;52.40;;;48.53;;
53267;SDS011;39156;51.176;6.738;2023-11-21T13:56:07;52.80;;;48.65;;
53267;SDS011;39156;51.176;6.738;2023-11-21T13:58:33;52.95;;;49.05;;
53267;SDS011;39156;51.176;6.738;2023-11-21T14:01:16;52.53;;;48.55;;
53267;SDS011;39156;51.176;6.738;2023-11-21T14:04:17;54.40;;;50.22;;
53267;SDS011;39156;51.176;6.738;2023-11-21T14:06:43;55.22;;;50.92;;
53267;SDS011;39156;51.176;6.738;2023-11-21T14:09:14;56.15;;;51.83;;
53267;SDS011;39156;51.176;6.738;2023-11-21T14:11:48;54.92;;;50.58;;
53267;SDS011;39156;51.176;6.738;2023-11-21T14:14:21;56.88;;;52.35;;
53267;SDS011;39156;51.176;6.738;2023-11-21T14:16:50;57.58;;;52.72;;
53267;SDS011;39156;51.176;6.738;2023-11-21T14:19:16;58.97;;;53.92;;
53267;SDS011;39156;51.176;6.738;2023-11-21T14:21:43;58.60;;;54.17;;
53267;SDS011;39156;51.176;6.738;2023-11-21T14:24:13;63.97;;;58.40;;
53267;SDS011;39156;51.176;6.738;2023-11-21T14:26:42;64.07;;;58.42;;
53267;SDS011;39156;51.176;6.738;2023-11-21T14:29:11;67.57;;;61.83;;
53267;SDS011;39156;51.176;6.738;2023-11-21T14:31:39;69.82;;;63.72;;
53267;SDS011;39156;51.176;6.738;2023-11-21T14:34:06;71.35;;;64.75;;
53267;SDS011;39156;51.176;6.738;2023-11-21T14:36:33;67.90;;;62.28;;
53267;SDS011;39156;51.176;6.738;2023-11-21T14:39:01;67.35;;;61.15;;
53267;SDS011;39156;51.176;6.738;2023-11-21T14:41:32;64.63;;;58.97;;
53267;SDS011;39156;51.176;6.738;2023-11-21T14:44:00;61.50;;;56.65;;
53267;SDS011;39156;51.176;6.738;2023-11-21T14:46:27;60.70;;;55.83;;
53267;SDS011;39156;51.176;6.738;2023-11-21T14:48:53;59.35;;;54.88;;
53267;SDS011;39156;51.176;6.738;2023-11-21T14:51:42;57.47;;;53.17;;
53267;SDS011;39156;51.176;6.738;2023-11-21T14:54:31;57.33;;;53.10;;
53267;SDS011;39156;51.176;6.738;2023-11-21T14:57:05;56.55;;;52.42;;
53267;SDS011;39156;51.176;6.738;2023-11-21T14:59:36;51.42;;;47.80;;
53267;SDS011;39156;51.176;6.738;2023-11-21T15:02:08;51.55;;;47.90;;